sensor_id;sensor_type;location;lat;lon;timestamp;P1;durP1;ratioP1;P2;durP2;ratioP2
32705;SDS011;19094;50.972;3.538;2022-07-10T00:01:32;11.65;;;3.80;;
32705;SDS011;19094;50.972;3.538;2022-07-10T00:03:58;14.00;;;3.60;;
32705;SDS011;19094;50.972;3.538;2022-07-10T00:06:25;14.88;;;4.10;;
32705;SDS011;19094;50.972;3.538;2022-07-10T00:08:52;10.02;;;3.83;;
32705;SDS011;19094;50.972;3.538;2022-07-10T00:11:20;7.20;;;3.67;;
32705;SDS011;19094;50.972;3.538;2022-07-10T00:13:46;10.20;;;3.47;;
32705;SDS011;19094;50.972;3.538;2022-07-10T00:16:14;7.95;;;4.18;;
32705;SDS011;19094;50.972;3.538;2022-07-10T00:18:40;10.98;;;4.00;;
32705;SDS011;19094;50.972;3.538;2022-07-10T00:21:05;12.60;;;3.80;;
32705;SDS011;19094;50.972;3.538;2022-07-10T00:23:32;11.65;;;3.88;;
32705;SDS011;19094;50.972;3.538;2022-07-10T00:25:58;9.60;;;3.88;;
32705;SDS011;19094;50.972;3.538;2022-07-10T00:28:23;9.98;;;3.88;;
32705;SDS011;19094;50.972;3.538;2022-07-10T00:30:50;9.10;;;4.13;;
32705;SDS011;19094;50.972;3.538;2022-07-10T00:33:16;5.97;;;3.55;;
32705;SDS011;19094;50.972;3.538;2022-07-10T00:35:41;10.80;;;3.75;;
32705;SDS011;19094;50.972;3.538;2022-07-10T00:38:08;10.57;;;3.95;;
32705;SDS011;19094;50.972;3.538;2022-07-10T00:40:34;12.20;;;3.80;;
32705;SDS011;19094;50.972;3.538;2022-07-10T00:43:00;15.43;;;4.45;;
32705;SDS011;19094;50.972;3.538;2022-07-10T00:45:27;10.90;;;4.25;;
32705;SDS011;19094;50.972;3.538;2022-07-10T00:47:52;12.48;;;3.78;;
32705;SDS011;19094;50.972;3.538;2022-07-10T00:50:19;8.55;;;3.70;;
32705;SDS011;19094;50.972;3.538;2022-07-10T00:52:45;9.77;;;3.88;;
32705;SDS011;19094;50.972;3.538;2022-07-10T00:55:11;8.27;;;3.78;;
32705;SDS011;19094;50.972;3.538;2022-07-10T00:57:39;11.75;;;3.70;;
32705;SDS011;19094;50.972;3.538;2022-07-10T01:00:05;12.50;;;3.95;;
32705;SDS011;19094;50.972;3.538;2022-07-10T01:02:42;12.80;;;4.45;;
32705;SDS011;19094;50.972;3.538;2022-07-10T01:05:08;9.77;;;4.05;;
32705;SDS011;19094;50.972;3.538;2022-07-10T01:07:35;10.50;;;3.90;;
32705;SDS011;19094;50.972;3.538;2022-07-10T01:10:02;9.68;;;4.00;;
32705;SDS011;19094;50.972;3.538;2022-07-10T01:12:30;15.02;;;4.95;;
32705;SDS011;19094;50.972;3.538;2022-07-10T01:14:56;12.38;;;4.53;;
32705;SDS011;19094;50.972;3.538;2022-07-10T01:17:23;11.80;;;4.82;;
32705;SDS011;19094;50.972;3.538;2022-07-10T01:19:53;11.88;;;4.43;;
32705;SDS011;19094;50.972;3.538;2022-07-10T01:22:19;11.52;;;3.88;;
32705;SDS011;19094;50.972;3.538;2022-07-10T01:24:46;10.27;;;4.07;;
32705;SDS011;19094;50.972;3.538;2022-07-10T01:27:12;11.77;;;4.43;;
32705;SDS011;19094;50.972;3.538;2022-07-10T01:29:39;10.43;;;3.72;;
32705;SDS011;19094;50.972;3.538;2022-07-10T01:32:07;9.30;;;4.35;;
32705;SDS011;19094;50.972;3.538;2022-07-10T01:34:33;12.18;;;4.60;;
32705;SDS011;19094;50.972;3.538;2022-07-10T01:36:59;9.95;;;4.50;;
32705;SDS011;19094;50.972;3.538;2022-07-10T01:39:25;16.35;;;5.35;;
32705;SDS011;19094;50.972;3.538;2022-07-10T01:41:52;11.10;;;4.97;;
32705;SDS011;19094;50.972;3.538;2022-07-10T01:44:18;10.10;;;4.40;;
32705;SDS011;19094;50.972;3.538;2022-07-10T01:46:44;7.32;;;4.18;;
32705;SDS011;19094;50.972;3.538;2022-07-10T01:49:10;14.65;;;5.25;;
32705;SDS011;19094;50.972;3.538;2022-07-10T01:51:36;9.20;;;4.30;;
32705;SDS011;19094;50.972;3.538;2022-07-10T01:54:02;9.93;;;4.07;;
32705;SDS011;19094;50.972;3.538;2022-07-10T01:56:30;12.77;;;4.75;;
32705;SDS011;19094;50.972;3.538;2022-07-10T01:58:57;8.43;;;4.60;;
32705;SDS011;19094;50.972;3.538;2022-07-10T02:01:23;8.75;;;4.97;;
32705;SDS011;19094;50.972;3.538;2022-07-10T02:03:48;13.35;;;4.60;;
32705;SDS011;19094;50.972;3.538;2022-07-10T02:06:33;16.00;;;4.68;;
32705;SDS011;19094;50.972;3.538;2022-07-10T02:08:59;7.68;;;4.13;;
32705;SDS011;19094;50.972;3.538;2022-07-10T02:11:26;12.00;;;4.40;;
32705;SDS011;19094;50.972;3.538;2022-07-10T02:13:55;11.15;;;4.70;;
32705;SDS011;19094;50.972;3.538;2022-07-10T02:16:21;12.75;;;4.78;;
32705;SDS011;19094;50.972;3.538;2022-07-10T02:18:46;11.68;;;4.95;;
32705;SDS011;19094;50.972;3.538;2022-07-10T02:21:12;12.35;;;4.95;;
32705;SDS011;19094;50.972;3.538;2022-07-10T02:23:38;10.93;;;4.32;;
32705;SDS011;19094;50.972;3.538;2022-07-10T02:26:06;15.00;;;4.90;;
32705;SDS011;19094;50.972;3.538;2022-07-10T02:28:35;10.25;;;4.47;;
32705;SDS011;19094;50.972;3.538;2022-07-10T02:31:02;13.07;;;4.45;;
32705;SDS011;19094;50.972;3.538;2022-07-10T02:33:29;6.75;;;3.83;;
32705;SDS011;19094;50.972;3.538;2022-07-10T02:35:55;10.82;;;4.32;;
32705;SDS011;19094;50.972;3.538;2022-07-10T02:38:20;8.50;;;4.40;;
32705;SDS011;19094;50.972;3.538;2022-07-10T02:40:46;13.27;;;4.50;;
32705;SDS011;19094;50.972;3.538;2022-07-10T02:43:12;10.30;;;4.30;;
32705;SDS011;19094;50.972;3.538;2022-07-10T02:45:38;8.55;;;4.15;;
32705;SDS011;19094;50.972;3.538;2022-07-10T02:48:05;6.85;;;4.20;;
32705;SDS011;19094;50.972;3.538;2022-07-10T02:50:30;8.48;;;4.43;;
32705;SDS011;19094;50.972;3.538;2022-07-10T02:52:56;18.00;;;4.63;;
32705;SDS011;19094;50.972;3.538;2022-07-10T02:55:22;9.90;;;4.72;;
32705;SDS011;19094;50.972;3.538;2022-07-10T02:57:48;9.18;;;4.63;;
32705;SDS011;19094;50.972;3.538;2022-07-10T03:00:13;11.73;;;4.80;;
32705;SDS011;19094;50.972;3.538;2022-07-10T03:02:39;10.55;;;4.88;;
32705;SDS011;19094;50.972;3.538;2022-07-10T03:05:05;12.90;;;5.30;;
32705;SDS011;19094;50.972;3.538;2022-07-10T03:07:31;12.70;;;5.57;;
32705;SDS011;19094;50.972;3.538;2022-07-10T03:09:57;8.90;;;4.97;;
32705;SDS011;19094;50.972;3.538;2022-07-10T03:12:22;17.48;;;5.53;;
32705;SDS011;19094;50.972;3.538;2022-07-10T03:14:49;10.80;;;4.55;;
32705;SDS011;19094;50.972;3.538;2022-07-10T03:17:15;8.95;;;5.00;;
32705;SDS011;19094;50.972;3.538;2022-07-10T03:19:40;11.85;;;4.75;;
32705;SDS011;19094;50.972;3.538;2022-07-10T03:22:06;12.15;;;4.95;;
32705;SDS011;19094;50.972;3.538;2022-07-10T03:24:32;8.88;;;4.60;;
32705;SDS011;19094;50.972;3.538;2022-07-10T03:26:57;8.77;;;4.82;;
32705;SDS011;19094;50.972;3.538;2022-07-10T03:29:26;9.90;;;5.53;;
32705;SDS011;19094;50.972;3.538;2022-07-10T03:31:51;14.63;;;5.28;;
32705;SDS011;19094;50.972;3.538;2022-07-10T03:34:17;11.55;;;5.80;;
32705;SDS011;19094;50.972;3.538;2022-07-10T03:36:44;9.85;;;5.20;;
32705;SDS011;19094;50.972;3.538;2022-07-10T03:39:11;13.27;;;5.50;;
32705;SDS011;19094;50.972;3.538;2022-07-10T03:41:36;13.05;;;5.38;;
32705;SDS011;19094;50.972;3.538;2022-07-10T03:44:05;13.25;;;5.38;;
32705;SDS011;19094;50.972;3.538;2022-07-10T03:46:31;12.63;;;5.78;;
32705;SDS011;19094;50.972;3.538;2022-07-10T03:48:57;12.32;;;5.40;;
32705;SDS011;19094;50.972;3.538;2022-07-10T03:51:23;9.30;;;5.63;;
32705;SDS011;19094;50.972;3.538;2022-07-10T03:53:49;10.63;;;5.40;;
32705;SDS011;19094;50.972;3.538;2022-07-10T03:56:17;13.02;;;5.85;;
32705;SDS011;19094;50.972;3.538;2022-07-10T03:59:01;13.35;;;5.60;;
32705;SDS011;19094;50.972;3.538;2022-07-10T04:01:29;10.07;;;5.28;;
32705;SDS011;19094;50.972;3.538;2022-07-10T04:03:56;16.30;;;5.80;;
32705;SDS011;19094;50.972;3.538;2022-07-10T04:06:21;12.68;;;6.00;;
32705;SDS011;19094;50.972;3.538;2022-07-10T04:08:47;7.88;;;5.30;;
32705;SDS011;19094;50.972;3.538;2022-07-10T04:11:12;12.20;;;6.03;;
32705;SDS011;19094;50.972;3.538;2022-07-10T04:13:38;16.05;;;6.43;;
32705;SDS011;19094;50.972;3.538;2022-07-10T04:16:05;12.13;;;5.63;;
32705;SDS011;19094;50.972;3.538;2022-07-10T04:18:37;10.23;;;5.88;;
32705;SDS011;19094;50.972;3.538;2022-07-10T04:21:05;12.73;;;6.15;;
32705;SDS011;19094;50.972;3.538;2022-07-10T04:23:34;11.95;;;5.95;;
32705;SDS011;19094;50.972;3.538;2022-07-10T04:26:00;15.15;;;6.25;;
32705;SDS011;19094;50.972;3.538;2022-07-10T04:28:26;14.23;;;6.18;;
32705;SDS011;19094;50.972;3.538;2022-07-10T04:30:52;14.18;;;6.60;;
32705;SDS011;19094;50.972;3.538;2022-07-10T04:33:18;10.80;;;5.68;;
32705;SDS011;19094;50.972;3.538;2022-07-10T04:35:44;11.43;;;5.63;;
32705;SDS011;19094;50.972;3.538;2022-07-10T04:38:09;15.75;;;6.28;;
32705;SDS011;19094;50.972;3.538;2022-07-10T04:40:36;15.02;;;5.68;;
32705;SDS011;19094;50.972;3.538;2022-07-10T04:43:02;11.68;;;5.32;;
32705;SDS011;19094;50.972;3.538;2022-07-10T04:45:30;11.85;;;5.30;;
32705;SDS011;19094;50.972;3.538;2022-07-10T04:47:56;11.65;;;5.45;;
32705;SDS011;19094;50.972;3.538;2022-07-10T04:50:22;9.45;;;4.68;;
32705;SDS011;19094;50.972;3.538;2022-07-10T04:52:48;9.07;;;5.32;;
32705;SDS011;19094;50.972;3.538;2022-07-10T04:55:15;12.07;;;5.30;;
32705;SDS011;19094;50.972;3.538;2022-07-10T04:57:44;12.57;;;6.03;;
32705;SDS011;19094;50.972;3.538;2022-07-10T05:00:11;14.07;;;6.28;;
32705;SDS011;19094;50.972;3.538;2022-07-10T05:02:37;12.68;;;5.75;;
32705;SDS011;19094;50.972;3.538;2022-07-10T05:05:04;12.70;;;5.88;;
32705;SDS011;19094;50.972;3.538;2022-07-10T05:07:34;13.85;;;5.68;;
32705;SDS011;19094;50.972;3.538;2022-07-10T05:10:00;8.93;;;4.80;;
32705;SDS011;19094;50.972;3.538;2022-07-10T05:12:28;8.20;;;4.65;;
32705;SDS011;19094;50.972;3.538;2022-07-10T05:14:54;13.45;;;5.40;;
32705;SDS011;19094;50.972;3.538;2022-07-10T05:17:20;12.38;;;4.95;;
32705;SDS011;19094;50.972;3.538;2022-07-10T05:19:47;12.05;;;5.22;;
32705;SDS011;19094;50.972;3.538;2022-07-10T05:22:13;13.55;;;4.38;;
32705;SDS011;19094;50.972;3.538;2022-07-10T05:24:39;8.55;;;4.85;;
32705;SDS011;19094;50.972;3.538;2022-07-10T05:27:05;14.32;;;5.00;;
32705;SDS011;19094;50.972;3.538;2022-07-10T05:29:31;7.93;;;4.93;;
32705;SDS011;19094;50.972;3.538;2022-07-10T05:31:57;12.45;;;4.95;;
32705;SDS011;19094;50.972;3.538;2022-07-10T05:34:23;15.57;;;4.78;;
32705;SDS011;19094;50.972;3.538;2022-07-10T05:36:49;7.78;;;4.30;;
32705;SDS011;19094;50.972;3.538;2022-07-10T05:39:14;12.30;;;5.00;;
32705;SDS011;19094;50.972;3.538;2022-07-10T05:41:40;19.70;;;5.80;;
32705;SDS011;19094;50.972;3.538;2022-07-10T05:44:06;10.45;;;4.68;;
32705;SDS011;19094;50.972;3.538;2022-07-10T05:46:31;13.10;;;4.60;;
32705;SDS011;19094;50.972;3.538;2022-07-10T05:48:57;10.93;;;4.40;;
32705;SDS011;19094;50.972;3.538;2022-07-10T05:51:24;10.35;;;4.38;;
32705;SDS011;19094;50.972;3.538;2022-07-10T05:53:50;10.50;;;3.72;;
32705;SDS011;19094;50.972;3.538;2022-07-10T05:56:15;10.07;;;3.97;;
32705;SDS011;19094;50.972;3.538;2022-07-10T05:58:41;7.95;;;4.03;;
32705;SDS011;19094;50.972;3.538;2022-07-10T06:01:08;10.30;;;3.58;;
32705;SDS011;19094;50.972;3.538;2022-07-10T06:03:34;6.78;;;3.30;;
32705;SDS011;19094;50.972;3.538;2022-07-10T06:06:00;9.35;;;3.20;;
32705;SDS011;19094;50.972;3.538;2022-07-10T06:08:26;5.13;;;3.38;;
32705;SDS011;19094;50.972;3.538;2022-07-10T06:10:51;6.82;;;3.65;;
32705;SDS011;19094;50.972;3.538;2022-07-10T06:13:20;7.72;;;3.50;;
32705;SDS011;19094;50.972;3.538;2022-07-10T06:15:46;7.00;;;3.38;;
32705;SDS011;19094;50.972;3.538;2022-07-10T06:18:12;9.73;;;3.83;;
32705;SDS011;19094;50.972;3.538;2022-07-10T06:20:38;7.53;;;4.18;;
32705;SDS011;19094;50.972;3.538;2022-07-10T06:23:03;8.77;;;3.42;;
32705;SDS011;19094;50.972;3.538;2022-07-10T06:25:30;8.73;;;4.78;;
32705;SDS011;19094;50.972;3.538;2022-07-10T06:27:56;6.82;;;2.47;;
32705;SDS011;19094;50.972;3.538;2022-07-10T06:30:22;10.10;;;2.15;;
32705;SDS011;19094;50.972;3.538;2022-07-10T06:32:48;5.30;;;2.47;;
32705;SDS011;19094;50.972;3.538;2022-07-10T06:35:14;11.85;;;2.72;;
32705;SDS011;19094;50.972;3.538;2022-07-10T06:37:40;6.65;;;2.53;;
32705;SDS011;19094;50.972;3.538;2022-07-10T06:40:07;8.32;;;2.60;;
32705;SDS011;19094;50.972;3.538;2022-07-10T06:42:34;6.93;;;2.17;;
32705;SDS011;19094;50.972;3.538;2022-07-10T06:45:00;8.18;;;2.30;;
32705;SDS011;19094;50.972;3.538;2022-07-10T06:47:26;9.10;;;2.80;;
32705;SDS011;19094;50.972;3.538;2022-07-10T06:50:10;9.18;;;2.58;;
32705;SDS011;19094;50.972;3.538;2022-07-10T06:52:37;6.93;;;2.30;;
32705;SDS011;19094;50.972;3.538;2022-07-10T06:55:03;6.10;;;2.35;;
32705;SDS011;19094;50.972;3.538;2022-07-10T06:57:30;4.65;;;1.70;;
32705;SDS011;19094;50.972;3.538;2022-07-10T06:59:56;8.18;;;2.83;;
32705;SDS011;19094;50.972;3.538;2022-07-10T07:02:21;6.50;;;2.30;;
32705;SDS011;19094;50.972;3.538;2022-07-10T07:04:47;8.32;;;2.30;;
32705;SDS011;19094;50.972;3.538;2022-07-10T07:07:13;5.85;;;2.00;;
32705;SDS011;19094;50.972;3.538;2022-07-10T07:09:39;6.32;;;2.50;;
32705;SDS011;19094;50.972;3.538;2022-07-10T07:12:06;9.05;;;2.58;;
32705;SDS011;19094;50.972;3.538;2022-07-10T07:14:32;8.40;;;3.25;;
32705;SDS011;19094;50.972;3.538;2022-07-10T07:16:58;5.78;;;2.25;;
32705;SDS011;19094;50.972;3.538;2022-07-10T07:19:35;10.27;;;3.03;;
32705;SDS011;19094;50.972;3.538;2022-07-10T07:22:20;9.25;;;2.95;;
32705;SDS011;19094;50.972;3.538;2022-07-10T07:25:05;7.43;;;3.28;;
32705;SDS011;19094;50.972;3.538;2022-07-10T07:27:33;6.07;;;3.13;;
32705;SDS011;19094;50.972;3.538;2022-07-10T07:30:08;9.68;;;2.90;;
32705;SDS011;19094;50.972;3.538;2022-07-10T07:32:44;7.72;;;3.35;;
32705;SDS011;19094;50.972;3.538;2022-07-10T07:35:14;11.50;;;2.72;;
32705;SDS011;19094;50.972;3.538;2022-07-10T07:37:44;11.02;;;2.78;;
32705;SDS011;19094;50.972;3.538;2022-07-10T07:40:12;7.07;;;2.95;;
32705;SDS011;19094;50.972;3.538;2022-07-10T07:42:47;6.82;;;2.38;;
32705;SDS011;19094;50.972;3.538;2022-07-10T07:45:14;6.50;;;2.25;;
32705;SDS011;19094;50.972;3.538;2022-07-10T07:47:47;6.28;;;2.25;;
32705;SDS011;19094;50.972;3.538;2022-07-10T07:50:18;4.15;;;1.60;;
32705;SDS011;19094;50.972;3.538;2022-07-10T07:53:06;4.50;;;1.85;;
32705;SDS011;19094;50.972;3.538;2022-07-10T07:55:32;5.72;;;2.03;;
32705;SDS011;19094;50.972;3.538;2022-07-10T07:57:58;5.05;;;2.00;;
32705;SDS011;19094;50.972;3.538;2022-07-10T08:00:29;11.20;;;1.80;;
32705;SDS011;19094;50.972;3.538;2022-07-10T08:02:56;7.90;;;2.00;;
32705;SDS011;19094;50.972;3.538;2022-07-10T08:05:22;11.05;;;2.42;;
32705;SDS011;19094;50.972;3.538;2022-07-10T08:07:50;8.43;;;1.70;;
32705;SDS011;19094;50.972;3.538;2022-07-10T08:10:19;5.55;;;1.60;;
32705;SDS011;19094;50.972;3.538;2022-07-10T08:12:49;6.00;;;1.83;;
32705;SDS011;19094;50.972;3.538;2022-07-10T08:15:16;5.43;;;1.90;;
32705;SDS011;19094;50.972;3.538;2022-07-10T08:17:55;11.40;;;2.10;;
32705;SDS011;19094;50.972;3.538;2022-07-10T08:20:22;2.72;;;1.73;;
32705;SDS011;19094;50.972;3.538;2022-07-10T08:22:48;7.43;;;2.00;;
32705;SDS011;19094;50.972;3.538;2022-07-10T08:25:15;8.20;;;1.88;;
32705;SDS011;19094;50.972;3.538;2022-07-10T08:27:42;7.63;;;2.17;;
32705;SDS011;19094;50.972;3.538;2022-07-10T08:30:08;8.90;;;2.00;;
32705;SDS011;19094;50.972;3.538;2022-07-10T08:32:34;4.93;;;2.30;;
32705;SDS011;19094;50.972;3.538;2022-07-10T08:35:02;6.03;;;2.00;;
32705;SDS011;19094;50.972;3.538;2022-07-10T08:37:29;4.40;;;2.15;;
32705;SDS011;19094;50.972;3.538;2022-07-10T08:39:55;6.07;;;2.30;;
32705;SDS011;19094;50.972;3.538;2022-07-10T08:42:21;8.30;;;2.25;;
32705;SDS011;19094;50.972;3.538;2022-07-10T08:44:48;7.95;;;1.85;;
32705;SDS011;19094;50.972;3.538;2022-07-10T08:47:18;4.22;;;1.98;;
32705;SDS011;19094;50.972;3.538;2022-07-10T08:49:46;10.93;;;2.00;;
32705;SDS011;19094;50.972;3.538;2022-07-10T08:52:13;18.73;;;2.30;;
32705;SDS011;19094;50.972;3.538;2022-07-10T08:54:58;4.80;;;2.00;;
32705;SDS011;19094;50.972;3.538;2022-07-10T08:57:25;6.05;;;1.77;;
32705;SDS011;19094;50.972;3.538;2022-07-10T08:59:51;6.43;;;1.77;;
32705;SDS011;19094;50.972;3.538;2022-07-10T09:02:19;43.55;;;8.95;;
32705;SDS011;19094;50.972;3.538;2022-07-10T09:04:48;27.05;;;3.50;;
32705;SDS011;19094;50.972;3.538;2022-07-10T09:07:14;5.93;;;2.30;;
32705;SDS011;19094;50.972;3.538;2022-07-10T09:09:54;9.15;;;2.15;;
32705;SDS011;19094;50.972;3.538;2022-07-10T09:12:48;12.45;;;2.55;;
32705;SDS011;19094;50.972;3.538;2022-07-10T09:20:38;21.90;;;8.63;;
32705;SDS011;19094;50.972;3.538;2022-07-10T09:25:46;10.75;;;5.50;;
32705;SDS011;19094;50.972;3.538;2022-07-10T09:28:13;10.98;;;4.50;;
32705;SDS011;19094;50.972;3.538;2022-07-10T09:30:43;6.53;;;2.40;;
32705;SDS011;19094;50.972;3.538;2022-07-10T09:33:24;26.88;;;7.05;;
32705;SDS011;19094;50.972;3.538;2022-07-10T09:38:55;14.35;;;3.22;;
32705;SDS011;19094;50.972;3.538;2022-07-10T09:41:29;7.30;;;2.47;;
32705;SDS011;19094;50.972;3.538;2022-07-10T09:44:02;6.63;;;2.10;;
32705;SDS011;19094;50.972;3.538;2022-07-10T09:46:34;7.70;;;2.35;;
32705;SDS011;19094;50.972;3.538;2022-07-10T09:49:10;12.27;;;2.83;;
32705;SDS011;19094;50.972;3.538;2022-07-10T09:54:04;5.78;;;1.95;;
32705;SDS011;19094;50.972;3.538;2022-07-10T09:56:45;4.78;;;1.98;;
32705;SDS011;19094;50.972;3.538;2022-07-10T09:59:16;8.57;;;2.03;;
32705;SDS011;19094;50.972;3.538;2022-07-10T10:01:51;16.83;;;2.20;;
32705;SDS011;19094;50.972;3.538;2022-07-10T10:04:19;5.32;;;1.80;;
32705;SDS011;19094;50.972;3.538;2022-07-10T10:06:53;6.00;;;2.42;;
32705;SDS011;19094;50.972;3.538;2022-07-10T10:09:43;12.95;;;2.05;;
32705;SDS011;19094;50.972;3.538;2022-07-10T10:12:25;6.72;;;1.77;;
32705;SDS011;19094;50.972;3.538;2022-07-10T10:14:56;9.20;;;2.85;;
32705;SDS011;19094;50.972;3.538;2022-07-10T10:17:24;6.85;;;1.73;;
32705;SDS011;19094;50.972;3.538;2022-07-10T10:19:53;21.67;;;3.20;;
32705;SDS011;19094;50.972;3.538;2022-07-10T10:22:42;13.35;;;2.75;;
32705;SDS011;19094;50.972;3.538;2022-07-10T10:25:10;6.38;;;2.25;;
32705;SDS011;19094;50.972;3.538;2022-07-10T10:27:38;21.52;;;2.80;;
32705;SDS011;19094;50.972;3.538;2022-07-10T10:30:05;9.70;;;2.80;;
32705;SDS011;19094;50.972;3.538;2022-07-10T10:32:39;15.25;;;2.00;;
32705;SDS011;19094;50.972;3.538;2022-07-10T10:35:06;3.63;;;1.67;;
32705;SDS011;19094;50.972;3.538;2022-07-10T10:37:38;10.05;;;1.90;;
32705;SDS011;19094;50.972;3.538;2022-07-10T10:40:11;5.88;;;2.00;;
32705;SDS011;19094;50.972;3.538;2022-07-10T10:42:56;8.15;;;1.90;;
32705;SDS011;19094;50.972;3.538;2022-07-10T10:45:24;6.55;;;1.60;;
32705;SDS011;19094;50.972;3.538;2022-07-10T10:48:07;8.20;;;1.92;;
32705;SDS011;19094;50.972;3.538;2022-07-10T10:50:49;12.43;;;2.08;;
32705;SDS011;19094;50.972;3.538;2022-07-10T11:01:23;6.05;;;1.80;;
32705;SDS011;19094;50.972;3.538;2022-07-10T11:06:47;18.95;;;2.55;;
32705;SDS011;19094;50.972;3.538;2022-07-10T11:12:09;7.40;;;1.88;;
32705;SDS011;19094;50.972;3.538;2022-07-10T11:17:05;8.80;;;2.00;;
32705;SDS011;19094;50.972;3.538;2022-07-10T11:19:32;16.10;;;2.75;;
32705;SDS011;19094;50.972;3.538;2022-07-10T11:22:03;10.57;;;1.88;;
32705;SDS011;19094;50.972;3.538;2022-07-10T11:24:51;6.50;;;1.77;;
32705;SDS011;19094;50.972;3.538;2022-07-10T11:27:36;6.95;;;2.00;;
32705;SDS011;19094;50.972;3.538;2022-07-10T11:30:29;14.75;;;2.17;;
32705;SDS011;19094;50.972;3.538;2022-07-10T11:33:18;4.20;;;1.40;;
32705;SDS011;19094;50.972;3.538;2022-07-10T11:35:48;19.98;;;1.83;;
32705;SDS011;19094;50.972;3.538;2022-07-10T11:38:20;10.40;;;2.15;;
32705;SDS011;19094;50.972;3.538;2022-07-10T11:40:50;23.65;;;2.72;;
32705;SDS011;19094;50.972;3.538;2022-07-10T11:43:21;15.88;;;1.73;;
32705;SDS011;19094;50.972;3.538;2022-07-10T11:45:49;6.15;;;2.03;;
32705;SDS011;19094;50.972;3.538;2022-07-10T11:48:17;19.33;;;2.92;;
32705;SDS011;19094;50.972;3.538;2022-07-10T11:50:53;24.70;;;2.47;;
32705;SDS011;19094;50.972;3.538;2022-07-10T11:53:27;4.82;;;1.33;;
32705;SDS011;19094;50.972;3.538;2022-07-10T11:55:53;6.13;;;1.40;;
32705;SDS011;19094;50.972;3.538;2022-07-10T11:58:19;5.63;;;1.30;;
32705;SDS011;19094;50.972;3.538;2022-07-10T12:01:02;12.52;;;2.38;;
32705;SDS011;19094;50.972;3.538;2022-07-10T12:03:34;3.85;;;1.50;;
32705;SDS011;19094;50.972;3.538;2022-07-10T12:06:02;3.22;;;1.85;;
32705;SDS011;19094;50.972;3.538;2022-07-10T12:08:41;3.55;;;1.60;;
32705;SDS011;19094;50.972;3.538;2022-07-10T12:11:15;7.15;;;2.00;;
32705;SDS011;19094;50.972;3.538;2022-07-10T12:13:43;6.55;;;1.65;;
32705;SDS011;19094;50.972;3.538;2022-07-10T12:16:11;5.95;;;1.70;;
32705;SDS011;19094;50.972;3.538;2022-07-10T12:18:43;5.15;;;1.42;;
32705;SDS011;19094;50.972;3.538;2022-07-10T12:21:11;2.72;;;1.40;;
32705;SDS011;19094;50.972;3.538;2022-07-10T12:23:38;6.65;;;1.40;;
32705;SDS011;19094;50.972;3.538;2022-07-10T12:26:11;8.63;;;1.55;;
32705;SDS011;19094;50.972;3.538;2022-07-10T12:29:40;7.18;;;1.58;;
32705;SDS011;19094;50.972;3.538;2022-07-10T12:31:44;6.38;;;1.20;;
32705;SDS011;19094;50.972;3.538;2022-07-10T12:34:11;26.50;;;2.15;;
32705;SDS011;19094;50.972;3.538;2022-07-10T12:36:43;8.43;;;2.08;;
32705;SDS011;19094;50.972;3.538;2022-07-10T12:39:15;8.32;;;1.73;;
32705;SDS011;19094;50.972;3.538;2022-07-10T12:42:01;10.43;;;1.83;;
32705;SDS011;19094;50.972;3.538;2022-07-10T12:44:32;5.78;;;1.40;;
32705;SDS011;19094;50.972;3.538;2022-07-10T12:47:09;5.00;;;1.45;;
32705;SDS011;19094;50.972;3.538;2022-07-10T12:49:50;7.22;;;1.80;;
32705;SDS011;19094;50.972;3.538;2022-07-10T12:57:59;4.15;;;1.83;;
32705;SDS011;19094;50.972;3.538;2022-07-10T13:00:30;5.47;;;1.38;;
32705;SDS011;19094;50.972;3.538;2022-07-10T13:03:01;6.15;;;1.73;;
32705;SDS011;19094;50.972;3.538;2022-07-10T13:08:13;6.03;;;1.65;;
32705;SDS011;19094;50.972;3.538;2022-07-10T13:10:51;7.88;;;1.60;;
32705;SDS011;19094;50.972;3.538;2022-07-10T13:13:19;2.60;;;1.60;;
32705;SDS011;19094;50.972;3.538;2022-07-10T13:15:45;8.38;;;2.08;;
32705;SDS011;19094;50.972;3.538;2022-07-10T13:18:15;12.23;;;2.75;;
32705;SDS011;19094;50.972;3.538;2022-07-10T13:20:47;4.35;;;1.40;;
32705;SDS011;19094;50.972;3.538;2022-07-10T13:23:13;4.05;;;1.63;;
32705;SDS011;19094;50.972;3.538;2022-07-10T13:25:45;8.88;;;1.75;;
32705;SDS011;19094;50.972;3.538;2022-07-10T13:28:14;4.97;;;1.40;;
32705;SDS011;19094;50.972;3.538;2022-07-10T13:30:49;5.57;;;1.67;;
32705;SDS011;19094;50.972;3.538;2022-07-10T13:33:21;5.68;;;1.27;;
32705;SDS011;19094;50.972;3.538;2022-07-10T13:35:49;6.22;;;1.67;;
32705;SDS011;19094;50.972;3.538;2022-07-10T13:38:15;20.85;;;2.85;;
32705;SDS011;19094;50.972;3.538;2022-07-10T13:40:43;7.65;;;1.40;;
32705;SDS011;19094;50.972;3.538;2022-07-10T13:43:12;4.75;;;1.90;;
32705;SDS011;19094;50.972;3.538;2022-07-10T13:45:39;5.82;;;1.88;;
32705;SDS011;19094;50.972;3.538;2022-07-10T13:48:11;3.42;;;1.40;;
32705;SDS011;19094;50.972;3.538;2022-07-10T13:50:39;3.33;;;1.40;;
32705;SDS011;19094;50.972;3.538;2022-07-10T13:53:07;9.48;;;1.65;;
32705;SDS011;19094;50.972;3.538;2022-07-10T13:55:33;6.65;;;1.40;;
32705;SDS011;19094;50.972;3.538;2022-07-10T13:58:00;5.95;;;1.75;;
32705;SDS011;19094;50.972;3.538;2022-07-10T14:00:26;5.53;;;1.50;;
32705;SDS011;19094;50.972;3.538;2022-07-10T14:02:52;2.72;;;1.30;;
32705;SDS011;19094;50.972;3.538;2022-07-10T14:05:21;3.47;;;1.27;;
32705;SDS011;19094;50.972;3.538;2022-07-10T14:07:47;4.40;;;1.40;;
32705;SDS011;19094;50.972;3.538;2022-07-10T14:10:12;11.70;;;1.65;;
32705;SDS011;19094;50.972;3.538;2022-07-10T14:12:38;8.52;;;1.27;;
32705;SDS011;19094;50.972;3.538;2022-07-10T14:15:05;5.20;;;1.30;;
32705;SDS011;19094;50.972;3.538;2022-07-10T14:17:31;5.07;;;1.20;;
32705;SDS011;19094;50.972;3.538;2022-07-10T14:19:58;4.40;;;1.42;;
32705;SDS011;19094;50.972;3.538;2022-07-10T14:22:25;3.58;;;1.52;;
32705;SDS011;19094;50.972;3.538;2022-07-10T14:24:51;4.80;;;1.33;;
32705;SDS011;19094;50.972;3.538;2022-07-10T14:27:19;2.25;;;1.17;;
32705;SDS011;19094;50.972;3.538;2022-07-10T14:29:44;3.75;;;1.20;;
32705;SDS011;19094;50.972;3.538;2022-07-10T14:32:10;3.55;;;1.30;;
32705;SDS011;19094;50.972;3.538;2022-07-10T14:34:35;2.58;;;1.48;;
32705;SDS011;19094;50.972;3.538;2022-07-10T14:37:01;6.03;;;1.60;;
32705;SDS011;19094;50.972;3.538;2022-07-10T14:39:27;4.63;;;1.25;;
32705;SDS011;19094;50.972;3.538;2022-07-10T14:41:53;3.15;;;1.35;;
32705;SDS011;19094;50.972;3.538;2022-07-10T14:44:19;4.03;;;1.30;;
32705;SDS011;19094;50.972;3.538;2022-07-10T14:46:44;2.58;;;1.30;;
32705;SDS011;19094;50.972;3.538;2022-07-10T14:49:10;9.23;;;1.60;;
32705;SDS011;19094;50.972;3.538;2022-07-10T14:51:36;2.75;;;1.10;;
32705;SDS011;19094;50.972;3.538;2022-07-10T14:54:02;5.03;;;1.00;;
32705;SDS011;19094;50.972;3.538;2022-07-10T14:56:28;5.05;;;1.85;;
32705;SDS011;19094;50.972;3.538;2022-07-10T14:58:55;7.00;;;1.50;;
32705;SDS011;19094;50.972;3.538;2022-07-10T15:01:20;5.90;;;1.45;;
32705;SDS011;19094;50.972;3.538;2022-07-10T15:03:46;4.85;;;1.20;;
32705;SDS011;19094;50.972;3.538;2022-07-10T15:06:12;6.30;;;1.30;;
32705;SDS011;19094;50.972;3.538;2022-07-10T15:08:38;3.42;;;1.25;;
32705;SDS011;19094;50.972;3.538;2022-07-10T15:11:03;3.05;;;1.00;;
32705;SDS011;19094;50.972;3.538;2022-07-10T15:13:31;8.02;;;1.20;;
32705;SDS011;19094;50.972;3.538;2022-07-10T15:15:59;5.65;;;1.48;;
32705;SDS011;19094;50.972;3.538;2022-07-10T15:18:25;2.25;;;1.42;;
32705;SDS011;19094;50.972;3.538;2022-07-10T15:20:52;2.95;;;1.20;;
32705;SDS011;19094;50.972;3.538;2022-07-10T15:23:20;6.10;;;1.50;;
32705;SDS011;19094;50.972;3.538;2022-07-10T15:25:46;3.53;;;1.77;;
32705;SDS011;19094;50.972;3.538;2022-07-10T15:28:11;5.28;;;1.38;;
32705;SDS011;19094;50.972;3.538;2022-07-10T15:30:38;2.28;;;1.40;;